createdAt,value
2023-08-19T00:03:39.572Z,19.7
2023-08-19T00:05:42.274Z,19.7
2023-08-19T00:07:41.581Z,19.7
2023-08-19T00:11:40.410Z,19.7
2023-08-19T00:13:39.790Z,19.6
2023-08-19T00:15:39.120Z,19.6
2023-08-19T00:17:38.430Z,19.6
2023-08-19T00:19:41.237Z,19.5
2023-08-19T00:21:40.548Z,19.5
2023-08-19T00:23:39.841Z,19.5
2023-08-19T00:25:39.311Z,19.5
2023-08-19T00:27:38.625Z,19.5
2023-08-19T00:29:37.933Z,19.6
2023-08-19T00:31:37.341Z,19.5
2023-08-19T00:35:39.498Z,19.5
2023-08-19T00:37:38.885Z,19.5
2023-08-19T00:39:38.271Z,19.5
2023-08-19T00:43:37.073Z,19.5
2023-08-19T00:45:36.432Z,19.5
2023-08-19T00:49:38.456Z,19.4
2023-08-19T00:52:39.179Z,19.4
2023-08-19T00:54:38.490Z,19.5
2023-08-19T00:56:39.435Z,19.5
2023-08-19T00:58:38.770Z,19.5
2023-08-19T01:00:41.526Z,19.6
2023-08-19T01:02:40.831Z,19.6
2023-08-19T01:04:40.111Z,19.6
2023-08-19T01:08:38.799Z,19.7
2023-08-19T01:10:38.202Z,19.6
2023-08-19T01:12:37.597Z,19.7
2023-08-19T01:16:39.730Z,19.7
2023-08-19T01:18:39.042Z,19.7
2023-08-19T01:20:38.426Z,19.7
2023-08-19T01:22:37.827Z,19.8
2023-08-19T01:24:37.216Z,19.7
2023-08-19T01:30:38.769Z,19.8
2023-08-19T01:32:38.245Z,19.8
2023-08-19T01:34:37.576Z,19.7
2023-08-19T01:38:36.355Z,19.8
2023-08-19T01:40:35.727Z,19.7
2023-08-19T01:42:38.598Z,19.7
2023-08-19T01:48:58.935Z,19.6
2023-08-19T01:50:58.281Z,19.6
2023-08-19T01:52:57.688Z,19.6
2023-08-19T01:56:59.934Z,19.5
2023-08-19T01:58:59.318Z,19.5
2023-08-19T02:00:58.650Z,19.5
2023-08-19T02:02:57.944Z,19.5
2023-08-19T02:04:57.325Z,19.4
2023-08-19T02:06:56.734Z,19.4
2023-08-19T02:08:59.417Z,19.4
2023-08-19T02:10:58.799Z,19.3
2023-08-19T02:12:58.161Z,19.4
2023-08-19T02:14:57.615Z,19.3
2023-08-19T02:16:57.040Z,19.4
2023-08-19T02:18:56.404Z,19.3
2023-08-19T02:22:58.532Z,19.4
2023-08-19T02:24:57.874Z,19.3
2023-08-19T02:26:57.315Z,19.4
2023-08-19T02:32:55.545Z,19.3
2023-08-19T02:34:54.697Z,19.3
2023-08-19T02:36:57.538Z,19.3
2023-08-19T02:38:56.818Z,19.3
2023-08-19T02:40:56.228Z,19.3
2023-08-19T02:41:57.653Z,19.4
2023-08-19T02:45:56.416Z,19.3
2023-08-19T02:47:55.980Z,19.4
2023-08-19T02:49:58.379Z,19.4
2023-08-19T02:59:55.255Z,19.5
2023-08-19T03:03:57.403Z,19.5
2023-08-19T03:05:56.679Z,19.5
2023-08-19T03:09:55.405Z,19.6
2023-08-19T03:25:53.806Z,19.7
2023-08-19T03:36:55.556Z,19.8
2023-08-19T03:38:54.957Z,19.8
2023-08-19T03:40:54.343Z,19.9
2023-08-19T03:42:53.743Z,19.9
2023-08-19T03:44:56.562Z,20
2023-08-19T03:46:55.862Z,20
2023-08-19T03:50:54.635Z,20
2023-08-19T03:52:54.025Z,20
2023-08-19T03:54:53.330Z,20
2023-08-19T03:56:52.694Z,20
2023-08-19T03:58:55.422Z,20.1
2023-08-19T04:00:54.719Z,20.1
2023-08-19T04:02:54.134Z,20.2
2023-08-19T04:06:52.720Z,20.2
2023-08-19T04:08:51.969Z,20.1
2023-08-19T04:10:51.275Z,20.1
2023-08-19T04:12:54.108Z,20.2
2023-08-19T04:14:53.374Z,20.2
2023-08-19T04:16:52.743Z,20.1
2023-08-19T04:18:52.133Z,20.1
2023-08-19T04:20:51.401Z,20.2
2023-08-19T04:22:50.681Z,20.2
2023-08-19T04:24:49.977Z,20.2
2023-08-19T04:26:52.690Z,20.2
2023-08-19T04:28:52.080Z,20.2
2023-08-19T04:30:51.438Z,20.2
2023-08-19T04:31:52.792Z,20.2
2023-08-19T04:33:52.135Z,20.3
2023-08-19T04:35:51.411Z,20.3
2023-08-19T04:37:50.687Z,20.3
2023-08-19T04:39:53.388Z,20.3
2023-08-19T04:41:52.671Z,20.3
2023-08-19T04:43:52.045Z,20.3
2023-08-19T04:45:51.442Z,20.3
2023-08-19T04:47:50.705Z,20.3
2023-08-19T04:49:49.954Z,20.3
2023-08-19T04:51:49.243Z,20.4
2023-08-19T04:53:51.848Z,20.5
2023-08-19T04:55:51.243Z,20.5
2023-08-19T04:57:50.619Z,20.5
2023-08-19T04:59:49.900Z,20.5
2023-08-19T05:01:49.337Z,20.5
2023-08-19T05:03:48.572Z,20.5
2023-08-19T05:05:47.828Z,20.5
2023-08-19T05:07:50.624Z,20.5
2023-08-19T05:09:49.997Z,20.5
2023-08-19T05:17:47.177Z,20.5
2023-08-19T05:48:02.368Z,21.3
2023-08-19T05:50:01.630Z,21.4
2023-08-19T05:52:00.822Z,21.4
2023-08-19T05:54:00.060Z,21.4
2023-08-19T05:55:59.402Z,21.4
2023-08-19T05:57:58.655Z,21.4
2023-08-19T06:03:59.759Z,21.6
2023-08-19T06:11:56.631Z,21.7
2023-08-19T06:17:57.724Z,21.9
2023-08-19T06:20:58.187Z,22
2023-08-19T06:22:57.408Z,22.1
2023-08-19T06:24:56.604Z,22.1
2023-08-19T06:28:58.424Z,22.3
2023-08-19T06:30:57.647Z,22.4
2023-08-19T06:34:56.064Z,22.5
2023-08-19T06:38:54.462Z,22.7
2023-08-19T06:40:55.210Z,22.9
2023-08-19T06:42:57.719Z,23
2023-08-19T06:54:52.824Z,23.5
2023-08-19T07:00:53.718Z,23.4
2023-08-19T07:02:52.968Z,23.4
2023-08-19T07:08:50.315Z,23.5
2023-08-19T07:10:52.840Z,23.6
2023-08-19T07:12:51.971Z,23.6
2023-08-19T07:14:51.109Z,23.6
2023-08-19T07:15:52.380Z,23.8
2023-08-19T07:17:51.551Z,23.7
2023-08-19T07:21:49.788Z,23.8
2023-08-19T07:23:54.299Z,23.7
2023-08-19T07:35:47.040Z,24.3
2023-08-19T07:37:49.537Z,24.7
2023-08-19T07:39:48.607Z,24.7
2023-08-19T07:41:47.744Z,24.8
2023-08-19T07:43:46.842Z,24.9
2023-08-19T07:45:46.000Z,24.8
2023-08-19T07:47:45.075Z,24.9
2023-08-19T07:49:44.116Z,25
2023-08-19T07:53:45.673Z,25.2
2023-08-19T07:59:42.886Z,25.8
2023-08-19T08:03:41.038Z,26
2023-08-19T08:05:43.450Z,26.3
2023-08-19T08:07:42.501Z,26.3
2023-08-19T08:10:42.722Z,26.7
2023-08-19T08:12:41.776Z,26.6
2023-08-19T08:14:40.803Z,26.7
2023-08-19T08:16:39.773Z,26.6
2023-08-19T08:18:42.173Z,27
2023-08-19T08:20:41.174Z,27.2
2023-08-19T08:22:40.142Z,27.1
2023-08-19T08:38:35.259Z,26.7
2023-08-19T08:40:34.200Z,26.7
2023-08-19T08:50:32.192Z,29.7
2023-08-19T08:52:31.081Z,29.8
2023-08-19T08:56:28.856Z,28.5
2023-08-19T08:58:27.704Z,28
2023-08-19T09:00:29.943Z,27.7
2023-08-19T09:04:27.656Z,27.5
2023-08-19T09:06:48.104Z,28.6
2023-08-19T09:22:42.205Z,27.9
2023-08-19T09:24:41.039Z,27.7
2023-08-19T09:28:42.123Z,27.5
2023-08-19T09:30:40.981Z,27.5
2023-08-19T09:32:40.081Z,27.4
2023-08-19T09:34:39.879Z,27.4
2023-08-19T09:36:37.536Z,27.4
2023-08-19T09:38:36.421Z,27.3
2023-08-19T09:40:40.282Z,27.2
2023-08-19T09:48:34.251Z,27.2
2023-08-19T09:50:33.146Z,27.2
2023-08-19T09:54:34.342Z,27.1
2023-08-19T09:56:33.249Z,27.1
2023-08-19T09:58:32.130Z,27
2023-08-19T09:59:33.299Z,27
2023-08-19T10:03:31.175Z,27.1
2023-08-19T10:05:30.058Z,27.2
2023-08-19T10:07:32.332Z,27.3
2023-08-19T10:15:28.151Z,28.2
2023-08-19T10:17:27.087Z,28.2
2023-08-19T10:19:25.928Z,28.2
2023-08-19T10:21:28.219Z,28.4
2023-08-19T10:23:27.213Z,28.3
2023-08-19T10:25:26.036Z,28.3
2023-08-19T10:27:24.924Z,28.4
2023-08-19T10:35:23.889Z,28.7
2023-08-19T10:37:22.759Z,28.6
2023-08-19T10:39:21.626Z,28.5
2023-08-19T10:41:20.492Z,28.5
2023-08-19T10:43:19.346Z,28.5
2023-08-19T10:45:18.253Z,28.8
2023-08-19T10:47:17.081Z,29.7
2023-08-19T10:49:19.321Z,30.2
2023-08-19T10:51:18.161Z,30.1
2023-08-19T10:54:18.090Z,29.5
2023-08-19T10:56:16.875Z,29.3
2023-08-19T11:00:14.435Z,29.4
2023-08-19T11:02:16.617Z,30
2023-08-19T11:04:15.383Z,30
2023-08-19T11:06:14.083Z,29.9
2023-08-19T11:08:12.801Z,30
2023-08-19T11:14:08.824Z,30.9
2023-08-19T11:18:09.259Z,30.4
2023-08-19T11:20:07.746Z,29.7
2023-08-19T11:22:06.248Z,29.6
2023-08-19T11:28:02.006Z,28.8
2023-08-19T11:30:04.074Z,28.7
2023-08-19T11:32:02.777Z,28.7
2023-08-19T11:34:01.381Z,28.8
2023-08-19T11:36:00.063Z,28.9
2023-08-19T11:37:58.729Z,28.9
2023-08-19T11:39:57.428Z,28.7
2023-08-19T11:47:55.750Z,27.9
2023-08-19T11:48:56.826Z,27.8
2023-08-19T11:52:54.325Z,27.4
2023-08-19T12:02:51.833Z,27.3
2023-08-19T12:04:50.653Z,27.4
2023-08-19T12:08:48.352Z,27.6
2023-08-19T12:12:49.420Z,27.4
2023-08-19T12:16:47.189Z,27.3
2023-08-19T12:18:46.167Z,27.2
2023-08-19T12:20:44.983Z,27.2
2023-08-19T12:22:43.842Z,27.1
2023-08-19T12:24:47.635Z,27.2
2023-08-19T12:28:45.461Z,27.2
2023-08-19T12:32:43.350Z,27.4
2023-08-19T12:34:42.198Z,27.2
2023-08-19T12:42:48.726Z,26.9
2023-08-19T12:44:59.389Z,26.9
2023-08-19T12:46:58.328Z,26.8
2023-08-19T12:48:57.256Z,26.5
2023-08-19T12:50:59.547Z,26.3
2023-08-19T12:52:58.475Z,26.3
2023-08-19T13:00:54.299Z,26.3
2023-08-19T13:08:53.494Z,26.4
2023-08-19T13:10:52.482Z,26.6
2023-08-19T13:12:51.421Z,26.6
2023-08-19T13:14:50.405Z,26.5
2023-08-19T13:16:49.422Z,26.4
2023-08-19T13:18:51.707Z,26.4
2023-08-19T13:20:50.695Z,26.4
2023-08-19T13:22:49.665Z,26.3
2023-08-19T13:26:47.636Z,26
2023-08-19T13:30:45.635Z,25.8
2023-08-19T13:32:47.990Z,25.6
2023-08-19T13:37:47.144Z,25.5
2023-08-19T13:39:46.138Z,25.6
2023-08-19T13:47:45.562Z,25.4
2023-08-19T13:49:44.566Z,25.4
2023-08-19T13:51:43.573Z,25.3
2023-08-19T13:53:42.593Z,25.3
2023-08-19T13:55:41.622Z,25.3
2023-08-19T13:57:40.654Z,25.2
2023-08-19T13:59:42.995Z,25
2023-08-19T14:01:42.039Z,24.9
2023-08-19T14:03:41.224Z,24.9
2023-08-19T14:05:40.110Z,24.8
2023-08-19T14:07:39.116Z,24.7
2023-08-19T14:09:38.178Z,24.6
2023-08-19T14:11:37.208Z,24.4
2023-08-19T14:13:39.643Z,24.2
2023-08-19T14:15:38.743Z,24.1
2023-08-19T14:17:38.115Z,24
2023-08-19T14:19:36.862Z,24
2023-08-19T14:23:35.004Z,23.8
2023-08-19T14:27:36.854Z,23.7
2023-08-19T14:29:35.591Z,23.7
2023-08-19T14:31:34.740Z,23.7
2023-08-19T14:32:35.942Z,23.8
2023-08-19T14:44:33.894Z,23.5
2023-08-19T14:46:33.038Z,23.6
2023-08-19T14:54:32.873Z,23.8
2023-08-19T14:58:31.125Z,24.1
2023-08-19T15:00:30.256Z,24.2
2023-08-19T15:02:29.480Z,24.6
2023-08-19T15:04:28.618Z,24.9
2023-08-19T15:06:27.607Z,25.9
2023-08-19T15:08:30.109Z,26.1
2023-08-19T15:10:29.206Z,26.1
2023-08-19T15:12:28.312Z,26.4
2023-08-19T15:14:27.440Z,28.4
2023-08-19T15:16:26.534Z,29.7
2023-08-19T15:20:24.804Z,28.4
2023-08-19T15:22:27.108Z,29.6
2023-08-19T15:24:26.202Z,29.8
2023-08-19T15:27:26.425Z,31.3
2023-08-19T15:29:25.474Z,31.9
2023-08-19T15:31:24.567Z,31.4
2023-08-19T15:33:23.496Z,31.5
2023-08-19T15:35:25.863Z,32.1
2023-08-19T15:37:24.814Z,32.6
2023-08-19T15:39:23.775Z,32.8
2023-08-19T15:41:22.752Z,32.4
2023-08-19T15:43:21.699Z,32.6
2023-08-19T15:55:18.420Z,30.5
2023-08-19T16:03:17.360Z,30.8
2023-08-19T16:05:16.206Z,29.3
2023-08-19T16:09:13.887Z,26.5
2023-08-19T16:11:12.751Z,26.1
2023-08-19T16:13:11.673Z,25.9
2023-08-19T16:17:12.822Z,25.4
2023-08-19T16:19:11.884Z,25.4
2023-08-19T16:21:10.663Z,25.2
2023-08-19T16:29:28.999Z,25.2
2023-08-19T16:31:28.016Z,25.1
2023-08-19T16:33:27.004Z,25.1
2023-08-19T16:35:25.918Z,25.1
2023-08-19T16:39:23.950Z,25
2023-08-19T16:43:25.347Z,24.9
2023-08-19T16:45:24.362Z,24.9
2023-08-19T16:49:22.374Z,24.8
2023-08-19T16:53:20.501Z,24.9
2023-08-19T16:55:19.517Z,24.8
2023-08-19T16:57:21.969Z,24.5
2023-08-19T17:01:20.096Z,24.3
2023-08-19T17:03:19.204Z,24.3
2023-08-19T17:07:17.315Z,24.3
2023-08-19T17:13:17.939Z,24
2023-08-19T17:16:18.320Z,24.1
2023-08-19T17:18:17.344Z,24.1
2023-08-19T17:24:18.059Z,23.8
2023-08-19T17:26:17.097Z,23.7
2023-08-19T17:30:15.372Z,23.7
2023-08-19T17:36:12.709Z,23.6
2023-08-19T17:38:16.251Z,23.5
2023-08-19T17:40:14.333Z,23.4
2023-08-19T17:42:13.472Z,23.2
2023-08-19T17:46:11.856Z,23.2
2023-08-19T17:48:10.930Z,23.2
2023-08-19T17:50:10.023Z,23
2023-08-19T17:52:12.519Z,22.9
2023-08-19T17:58:09.972Z,22.9
2023-08-19T18:00:09.142Z,23
2023-08-19T18:04:07.516Z,22.9
2023-08-19T18:06:11.530Z,22.9
2023-08-19T18:08:10.682Z,22.8
2023-08-19T18:10:09.839Z,22.8
2023-08-19T18:11:11.103Z,22.8
2023-08-19T18:19:11.160Z,22.5
2023-08-19T18:21:10.318Z,22.4
2023-08-19T18:23:09.474Z,22.3
2023-08-19T18:25:08.702Z,22.2
2023-08-19T18:27:07.865Z,22.1
2023-08-19T18:29:07.055Z,22
2023-08-19T18:31:06.309Z,21.9
2023-08-19T18:33:08.873Z,21.8
2023-08-19T18:35:07.987Z,21.8
2023-08-19T18:37:07.200Z,21.7
2023-08-19T18:39:06.389Z,21.5
2023-08-19T18:41:05.608Z,21.3
2023-08-19T18:43:04.813Z,21.1
2023-08-19T18:45:04.030Z,20.9
2023-08-19T18:47:06.722Z,20.8
2023-08-19T18:53:04.358Z,20.5
2023-08-19T19:06:04.552Z,19.9
2023-08-19T19:08:03.853Z,19.9
2023-08-19T19:10:03.086Z,19.8
2023-08-19T19:12:02.376Z,19.7
2023-08-19T19:14:05.074Z,19.7
2023-08-19T19:16:04.429Z,19.7
2023-08-19T19:18:03.672Z,19.7
2023-08-19T19:22:02.165Z,19.6
2023-08-19T19:24:01.436Z,19.5
2023-08-19T19:34:01.148Z,19.2
2023-08-19T19:36:00.401Z,19.2
2023-08-19T19:42:01.536Z,19
2023-08-19T19:44:00.797Z,19
2023-08-19T19:46:00.153Z,18.9
2023-08-19T19:47:59.335Z,18.9
2023-08-19T19:49:58.574Z,18.8
2023-08-19T19:51:57.843Z,18.8
2023-08-19T19:53:57.116Z,18.8
2023-08-19T19:55:59.741Z,18.8
2023-08-19T19:57:59.007Z,18.8
2023-08-19T19:59:58.300Z,18.7
2023-08-19T20:02:19.494Z,18.6
2023-08-19T20:06:18.153Z,18.6
2023-08-19T20:08:20.776Z,18.5
2023-08-19T20:10:26.223Z,18.5
2023-08-19T20:12:19.345Z,18.5
2023-08-19T20:16:18.051Z,18.5
2023-08-19T20:20:16.746Z,18.4
2023-08-19T20:22:19.583Z,18.3
2023-08-19T20:24:18.965Z,18.3
2023-08-19T20:26:18.373Z,18.2
2023-08-19T20:30:17.194Z,18.1
2023-08-19T20:32:16.522Z,18.1
2023-08-19T20:36:18.783Z,18.1
2023-08-19T20:38:18.203Z,18.1
2023-08-19T20:40:17.637Z,18.1
2023-08-19T20:50:18.237Z,17.9
2023-08-19T20:54:17.090Z,17.9
2023-08-19T20:55:18.428Z,17.9
2023-08-19T20:57:17.868Z,17.9
2023-08-19T21:03:19.642Z,17.8
2023-08-19T21:11:17.497Z,17.9
2023-08-19T21:13:16.913Z,18
2023-08-19T21:15:16.362Z,18
2023-08-19T21:17:19.258Z,18
2023-08-19T21:19:18.706Z,18.1
2023-08-19T21:21:18.129Z,18.1
2023-08-19T21:23:17.611Z,18.1
2023-08-19T21:25:17.074Z,18.2
2023-08-19T21:29:16.024Z,18.3
2023-08-19T21:33:18.321Z,18.3
2023-08-19T21:35:17.766Z,18.4
2023-08-19T21:43:15.674Z,18.4
2023-08-19T21:45:18.533Z,18.4
2023-08-19T21:50:18.884Z,18.2
2023-08-19T21:52:18.337Z,18.2
2023-08-19T21:54:17.792Z,18.1
2023-08-19T21:56:17.239Z,18.1
2023-08-19T21:58:20.143Z,18
2023-08-19T22:00:19.610Z,18
2023-08-19T22:02:19.103Z,18.1
2023-08-19T22:04:18.520Z,18.1
2023-08-19T22:06:17.973Z,18.1
2023-08-19T22:08:17.429Z,18.1
2023-08-19T22:10:16.856Z,18.2
2023-08-19T22:12:19.774Z,18.2
2023-08-19T22:14:19.233Z,18.2
2023-08-19T22:16:18.697Z,18.3
2023-08-19T22:18:18.164Z,18.2
2023-08-19T22:20:17.597Z,18.1
2023-08-19T22:22:17.046Z,18.1
2023-08-19T22:26:19.350Z,17.9
2023-08-19T22:30:18.256Z,17.9
2023-08-19T22:32:17.728Z,17.8
2023-08-19T22:34:17.163Z,17.9
2023-08-19T22:40:18.962Z,17.9
2023-08-19T22:45:19.313Z,17.8
2023-08-19T22:49:18.190Z,17.7
2023-08-19T22:53:20.543Z,17.7
2023-08-19T22:55:20.008Z,17.7
2023-08-19T22:59:18.931Z,17.7
2023-08-19T23:01:18.389Z,17.6
2023-08-19T23:03:17.915Z,17.6
2023-08-19T23:07:20.223Z,17.5
2023-08-19T23:13:18.602Z,17.4
2023-08-19T23:15:18.087Z,17.4
2023-08-19T23:17:17.575Z,17.3
2023-08-19T23:21:22.263Z,17.1
2023-08-19T23:23:19.444Z,17.1
2023-08-19T23:25:18.946Z,17.1
2023-08-19T23:27:18.375Z,17.1
2023-08-19T23:29:17.898Z,17
2023-08-19T23:31:17.433Z,16.9
2023-08-19T23:33:16.814Z,16.9
2023-08-19T23:35:19.772Z,17
2023-08-19T23:37:19.257Z,16.9
2023-08-19T23:41:33.950Z,17
2023-08-19T23:43:33.470Z,17
2023-08-19T23:47:36.021Z,17.2
2023-08-19T23:49:36.895Z,17.3
2023-08-19T23:51:36.327Z,17.4
2023-08-19T23:53:35.809Z,17.4
2023-08-19T23:55:35.306Z,17.4
2023-08-19T23:57:35.016Z,17.5
2023-08-19T23:59:34.264Z,17.5
